createdAt,value
2023-10-31T00:00:37.022Z,5.47
2023-10-31T00:03:03.665Z,5.25
2023-10-31T00:05:30.313Z,4.03
2023-10-31T00:07:56.914Z,3.15
2023-10-31T00:10:23.514Z,4.30
2023-10-31T00:12:50.128Z,5.25
2023-10-31T00:15:16.762Z,4.18
2023-10-31T00:17:43.434Z,5.88
2023-10-31T00:20:10.148Z,6.53
2023-10-31T00:22:37.086Z,6.15
2023-10-31T00:25:03.808Z,4.15
2023-10-31T00:27:30.337Z,7.28
2023-10-31T00:29:56.922Z,5.38
2023-10-31T00:32:23.549Z,6.82
2023-10-31T00:34:50.304Z,5.97
2023-10-31T00:37:16.933Z,6.28
2023-10-31T00:39:43.491Z,7.60
2023-10-31T00:42:10.061Z,3.50
2023-10-31T00:44:36.879Z,3.90
2023-10-31T00:47:06.001Z,3.92
2023-10-31T00:49:32.553Z,4.78
2023-10-31T00:51:59.070Z,3.97
2023-10-31T00:54:25.652Z,8.52
2023-10-31T00:56:52.305Z,4.63
2023-10-31T00:59:18.851Z,3.05
2023-10-31T01:01:45.461Z,2.65
2023-10-31T01:04:12.305Z,4.18
2023-10-31T01:06:44.908Z,5.45
2023-10-31T01:09:11.461Z,4.47
2023-10-31T01:11:38.035Z,6.93
2023-10-31T01:14:04.775Z,3.78
2023-10-31T01:16:31.344Z,4.85
2023-10-31T01:18:57.893Z,4.30
2023-10-31T01:21:24.410Z,2.83
2023-10-31T01:23:51.041Z,4.80
2023-10-31T01:26:17.573Z,1.83
2023-10-31T01:28:44.106Z,3.22
2023-10-31T01:31:10.672Z,1.20
2023-10-31T01:33:37.718Z,3.22
2023-10-31T01:36:04.743Z,3.70
2023-10-31T01:38:31.232Z,1.30
2023-10-31T01:40:57.809Z,2.75
2023-10-31T01:43:31.297Z,1.98
2023-10-31T01:45:57.882Z,1.33
2023-10-31T01:48:24.995Z,2.20
2023-10-31T01:50:51.988Z,1.65
2023-10-31T01:53:18.537Z,0.98
2023-10-31T01:55:45.812Z,3.67
2023-10-31T01:58:12.822Z,2.88
2023-10-31T02:00:43.984Z,1.10
2023-10-31T02:03:10.736Z,1.08
2023-10-31T02:05:37.447Z,3.83
2023-10-31T02:08:04.203Z,1.30
2023-10-31T02:10:30.882Z,2.30
2023-10-31T02:12:57.430Z,2.20
2023-10-31T02:15:24.047Z,2.65
2023-10-31T02:17:50.598Z,2.10
2023-10-31T02:20:17.196Z,2.95
2023-10-31T02:22:43.798Z,0.90
2023-10-31T02:25:19.530Z,3.20
2023-10-31T02:27:46.255Z,2.70
2023-10-31T02:30:13.233Z,4.32
2023-10-31T02:32:39.913Z,0.98
2023-10-31T02:35:06.939Z,2.72
2023-10-31T02:37:33.784Z,2.35
2023-10-31T02:40:00.932Z,0.70
2023-10-31T02:42:27.665Z,3.45
2023-10-31T02:44:54.541Z,1.48
2023-10-31T02:47:21.098Z,2.40
2023-10-31T02:49:48.051Z,5.20
2023-10-31T02:52:14.619Z,3.55
2023-10-31T02:54:41.195Z,2.28
2023-10-31T02:57:08.346Z,2.83
2023-10-31T02:59:34.893Z,2.75
2023-10-31T03:02:01.641Z,4.10
2023-10-31T03:04:28.296Z,2.72
2023-10-31T03:06:54.824Z,4.00
2023-10-31T03:09:21.460Z,1.58
2023-10-31T03:11:47.976Z,2.03
2023-10-31T03:14:14.595Z,3.22
2023-10-31T03:16:41.317Z,3.47
2023-10-31T03:19:08.023Z,1.88
2023-10-31T03:21:34.659Z,4.80
2023-10-31T03:24:01.245Z,3.38
2023-10-31T03:26:27.822Z,1.40
2023-10-31T03:28:58.518Z,3.03
2023-10-31T03:31:25.269Z,7.05
2023-10-31T03:33:52.743Z,2.13
2023-10-31T03:36:19.241Z,3.85
2023-10-31T03:38:45.829Z,1.20
2023-10-31T03:41:12.386Z,2.88
2023-10-31T03:43:38.953Z,4.70
2023-10-31T03:46:05.772Z,2.17
2023-10-31T03:48:32.504Z,1.92
2023-10-31T03:50:59.013Z,5.07
2023-10-31T03:53:25.599Z,3.30
2023-10-31T03:55:52.223Z,1.75
2023-10-31T03:58:18.747Z,1.63
2023-10-31T04:00:45.385Z,2.90
2023-10-31T04:03:12.031Z,1.75
2023-10-31T04:05:38.868Z,1.65
2023-10-31T04:08:05.490Z,4.00
2023-10-31T04:10:32.036Z,1.75
2023-10-31T04:12:58.570Z,5.78
2023-10-31T04:15:25.113Z,5.13
2023-10-31T04:17:51.746Z,4.95
2023-10-31T04:20:18.415Z,3.20
2023-10-31T04:22:44.996Z,1.20
2023-10-31T04:25:11.649Z,1.98
2023-10-31T04:27:38.236Z,3.25
2023-10-31T04:30:04.990Z,1.23
2023-10-31T04:32:31.551Z,3.40
2023-10-31T04:34:58.308Z,1.00
2023-10-31T04:37:25.790Z,2.20
2023-10-31T04:39:52.378Z,1.98
2023-10-31T04:42:21.638Z,3.08
2023-10-31T04:44:48.220Z,1.88
2023-10-31T04:47:15.145Z,3.75
2023-10-31T04:49:41.818Z,2.20
2023-10-31T04:52:08.403Z,2.28
2023-10-31T04:54:35.463Z,1.60
2023-10-31T04:57:02.098Z,4.45
2023-10-31T04:59:28.646Z,2.95
2023-10-31T05:01:56.594Z,0.70
2023-10-31T05:04:23.372Z,4.85
2023-10-31T05:06:50.040Z,2.20
2023-10-31T05:09:16.610Z,1.48
2023-10-31T05:11:43.456Z,2.30
2023-10-31T05:14:11.040Z,1.73
2023-10-31T05:16:43.980Z,2.95
2023-10-31T05:19:10.942Z,1.73
2023-10-31T05:21:37.586Z,2.00
2023-10-31T05:24:04.880Z,1.80
2023-10-31T05:26:31.439Z,2.05
2023-10-31T05:28:58.613Z,2.17
2023-10-31T05:31:25.809Z,1.73
2023-10-31T05:33:53.845Z,3.42
2023-10-31T05:36:21.243Z,3.38
2023-10-31T05:38:48.434Z,3.15
2023-10-31T05:41:15.394Z,1.60
2023-10-31T05:43:42.465Z,3.55
2023-10-31T05:46:12.234Z,4.40
2023-10-31T05:48:40.322Z,3.72
2023-10-31T05:51:16.337Z,2.70
2023-10-31T05:53:43.317Z,2.22
2023-10-31T05:56:10.444Z,5.55
2023-10-31T05:58:38.014Z,2.30
2023-10-31T06:01:04.735Z,2.22
2023-10-31T06:03:31.356Z,3.45
2023-10-31T06:05:57.978Z,3.17
2023-10-31T06:08:25.461Z,3.35
2023-10-31T06:10:52.183Z,1.55
2023-10-31T06:13:18.839Z,6.55
2023-10-31T06:15:45.721Z,0.82
2023-10-31T06:18:12.295Z,1.08
2023-10-31T06:20:39.054Z,0.65
2023-10-31T06:23:05.878Z,3.60
2023-10-31T06:25:32.846Z,1.92
2023-10-31T06:27:59.469Z,2.40
2023-10-31T06:30:29.128Z,2.40
2023-10-31T06:32:56.104Z,3.38
2023-10-31T06:35:25.761Z,1.92
2023-10-31T06:37:53.152Z,1.10
2023-10-31T06:40:19.677Z,2.58
2023-10-31T06:42:46.243Z,2.33
2023-10-31T06:45:12.872Z,2.55
2023-10-31T06:47:39.389Z,2.22
2023-10-31T06:50:06.257Z,2.03
2023-10-31T06:52:32.803Z,3.03
2023-10-31T06:54:59.323Z,2.40
2023-10-31T06:57:25.904Z,2.33
2023-10-31T06:59:53.206Z,1.88
2023-10-31T07:02:19.916Z,2.60
2023-10-31T07:04:46.554Z,2.75
2023-10-31T07:07:13.152Z,1.98
2023-10-31T07:09:39.742Z,1.20
2023-10-31T07:12:06.479Z,3.63
2023-10-31T07:14:33.204Z,5.30
2023-10-31T07:16:59.772Z,4.22
2023-10-31T07:19:26.254Z,4.05
2023-10-31T07:21:52.852Z,4.88
2023-10-31T07:24:19.813Z,3.22
2023-10-31T07:26:46.351Z,0.98
2023-10-31T07:29:13.710Z,0.70
2023-10-31T07:31:40.412Z,2.42
2023-10-31T07:34:07.064Z,1.10
2023-10-31T07:36:36.072Z,4.32
2023-10-31T07:39:04.000Z,1.65
2023-10-31T07:41:30.693Z,6.15
2023-10-31T07:43:57.558Z,2.97
2023-10-31T07:46:24.415Z,2.45
2023-10-31T07:48:51.063Z,2.25
2023-10-31T07:51:17.558Z,4.53
2023-10-31T07:53:44.107Z,3.78
2023-10-31T07:56:17.702Z,3.65
2023-10-31T07:58:44.354Z,2.30
2023-10-31T08:01:12.119Z,3.83
2023-10-31T08:03:41.783Z,3.38
2023-10-31T08:06:08.859Z,1.50
2023-10-31T08:08:35.531Z,2.75
2023-10-31T08:11:02.108Z,3.25
2023-10-31T08:13:28.716Z,3.67
2023-10-31T08:15:55.287Z,1.73
2023-10-31T08:18:22.974Z,5.10
2023-10-31T08:20:52.058Z,3.30
2023-10-31T08:23:18.975Z,2.50
2023-10-31T08:25:45.797Z,3.17
2023-10-31T08:28:12.873Z,2.40
2023-10-31T08:30:40.256Z,1.73
2023-10-31T08:33:08.721Z,6.18
2023-10-31T08:35:36.827Z,4.78
2023-10-31T08:38:03.423Z,2.00
2023-10-31T08:40:29.958Z,3.58
2023-10-31T08:42:56.868Z,4.20
2023-10-31T08:45:24.591Z,5.50
2023-10-31T08:47:52.525Z,3.90
2023-10-31T08:50:19.625Z,3.22
2023-10-31T08:52:46.139Z,4.45
2023-10-31T08:55:12.775Z,2.00
2023-10-31T08:57:39.492Z,7.40
2023-10-31T09:00:06.431Z,6.28
2023-10-31T09:02:32.964Z,3.33
2023-10-31T09:04:59.537Z,3.55
2023-10-31T09:07:26.082Z,11.95
2023-10-31T09:09:52.768Z,4.70
2023-10-31T09:12:19.384Z,4.80
2023-10-31T09:14:46.335Z,5.68
2023-10-31T09:17:13.557Z,4.07
2023-10-31T09:19:40.103Z,4.22
2023-10-31T09:22:06.666Z,5.75
2023-10-31T09:24:33.212Z,5.95
2023-10-31T09:26:59.914Z,2.67
2023-10-31T09:29:30.018Z,3.55
2023-10-31T09:31:57.169Z,2.17
2023-10-31T09:34:23.904Z,5.65
2023-10-31T09:36:50.434Z,4.75
2023-10-31T09:39:17.423Z,6.53
2023-10-31T09:41:43.987Z,2.25
2023-10-31T09:44:10.663Z,2.70
2023-10-31T09:46:37.272Z,1.70
2023-10-31T09:49:03.995Z,2.25
2023-10-31T09:51:30.744Z,2.10
2023-10-31T09:53:57.300Z,2.47
2023-10-31T09:56:24.071Z,4.25
2023-10-31T09:58:50.946Z,4.57
2023-10-31T10:01:17.558Z,2.05
2023-10-31T10:03:44.834Z,2.63
2023-10-31T10:06:11.616Z,1.52
2023-10-31T10:08:38.956Z,1.38
2023-10-31T10:11:06.495Z,3.63
2023-10-31T10:13:33.058Z,3.55
2023-10-31T10:15:59.606Z,1.40
2023-10-31T10:18:29.529Z,3.35
2023-10-31T10:20:56.744Z,1.85
2023-10-31T10:23:23.790Z,4.75
2023-10-31T10:25:50.781Z,2.08
2023-10-31T10:28:17.545Z,2.33
2023-10-31T10:30:44.133Z,3.13
2023-10-31T10:33:10.662Z,1.80
2023-10-31T10:35:37.229Z,2.13
2023-10-31T10:38:03.773Z,4.00
2023-10-31T10:40:30.422Z,4.15
2023-10-31T10:42:58.973Z,3.20
2023-10-31T10:45:25.589Z,1.08
2023-10-31T10:47:52.709Z,3.42
2023-10-31T10:50:19.858Z,1.65
2023-10-31T10:52:49.113Z,3.90
2023-10-31T10:55:21.060Z,2.00
2023-10-31T10:57:55.995Z,3.72
2023-10-31T11:00:26.104Z,3.13
2023-10-31T11:02:54.196Z,2.65
2023-10-31T11:05:21.008Z,2.10
2023-10-31T11:07:47.594Z,1.75
2023-10-31T11:10:14.215Z,1.00
2023-10-31T11:12:40.774Z,2.88
2023-10-31T11:15:07.879Z,2.67
2023-10-31T11:17:53.384Z,3.22
2023-10-31T11:20:19.982Z,1.95
2023-10-31T11:22:47.096Z,0.90
2023-10-31T11:25:23.159Z,2.10
2023-10-31T11:27:57.606Z,2.03
2023-10-31T11:30:28.864Z,2.22
2023-10-31T11:32:55.797Z,4.32
2023-10-31T11:35:22.728Z,2.88
2023-10-31T11:37:49.360Z,2.22
2023-10-31T11:40:20.347Z,1.83
2023-10-31T11:42:55.352Z,1.70
2023-10-31T11:45:29.617Z,0.82
2023-10-31T11:47:56.761Z,1.42
2023-10-31T11:50:25.783Z,5.05
2023-10-31T11:53:02.275Z,1.23
2023-10-31T11:55:28.888Z,3.10
2023-10-31T11:57:55.775Z,0.90
2023-10-31T12:00:23.539Z,1.00
2023-10-31T12:03:08.248Z,0.88
2023-10-31T12:05:35.454Z,0.98
2023-10-31T12:08:02.116Z,3.25
2023-10-31T12:10:32.116Z,1.25
2023-10-31T12:12:59.795Z,0.80
2023-10-31T12:15:26.565Z,2.15
2023-10-31T12:17:53.195Z,2.25
2023-10-31T12:20:20.560Z,1.02
2023-10-31T12:22:47.142Z,1.85
2023-10-31T12:25:13.953Z,1.02
2023-10-31T12:27:44.442Z,1.88
2023-10-31T12:30:11.681Z,1.10
2023-10-31T12:32:38.296Z,1.52
2023-10-31T12:35:05.060Z,0.80
2023-10-31T12:37:31.629Z,0.73
2023-10-31T12:39:58.235Z,2.53
2023-10-31T12:42:30.380Z,0.68
2023-10-31T12:44:57.084Z,1.05
2023-10-31T12:47:23.718Z,0.60
2023-10-31T12:50:06.134Z,2.92
2023-10-31T12:52:48.478Z,0.85
2023-10-31T12:55:19.389Z,0.98
2023-10-31T12:57:47.656Z,1.38
2023-10-31T13:00:14.915Z,1.10
2023-10-31T13:02:42.012Z,3.10
2023-10-31T13:05:09.325Z,0.98
2023-10-31T13:07:35.879Z,1.00
2023-10-31T13:10:02.537Z,2.85
2023-10-31T13:12:30.950Z,0.90
2023-10-31T13:14:57.471Z,2.50
2023-10-31T13:17:24.241Z,1.35
2023-10-31T13:19:50.820Z,1.27
2023-10-31T13:22:17.316Z,1.33
2023-10-31T13:24:44.070Z,1.45
2023-10-31T13:27:15.809Z,13.25
2023-10-31T13:29:42.386Z,3.58
2023-10-31T13:32:09.924Z,1.17
2023-10-31T13:34:36.974Z,2.65
2023-10-31T13:37:04.095Z,2.08
2023-10-31T13:39:30.706Z,6.25
2023-10-31T13:41:57.186Z,3.80
2023-10-31T13:44:23.877Z,1.25
2023-10-31T13:46:51.748Z,1.90
2023-10-31T13:49:18.291Z,1.88
2023-10-31T13:51:45.034Z,2.65
2023-10-31T13:54:11.591Z,1.40
2023-10-31T13:56:40.342Z,2.40
2023-10-31T13:59:07.198Z,2.08
2023-10-31T14:01:33.833Z,2.17
2023-10-31T14:04:00.940Z,6.18
2023-10-31T14:06:31.473Z,2.25
2023-10-31T14:08:58.746Z,3.00
2023-10-31T14:11:25.313Z,3.10
2023-10-31T14:13:52.116Z,3.28
2023-10-31T14:16:18.733Z,3.70
2023-10-31T14:18:45.266Z,3.97
2023-10-31T14:21:11.777Z,5.18
2023-10-31T14:23:38.362Z,4.88
2023-10-31T14:26:06.236Z,3.40
2023-10-31T14:28:32.838Z,5.07
2023-10-31T14:30:59.501Z,5.88
2023-10-31T14:33:26.084Z,3.38
2023-10-31T14:35:52.644Z,6.35
2023-10-31T14:38:19.220Z,3.97
2023-10-31T14:40:45.852Z,3.85
2023-10-31T14:43:16.663Z,4.13
2023-10-31T14:45:43.200Z,5.47
2023-10-31T14:48:09.787Z,5.00
2023-10-31T14:50:36.343Z,5.18
2023-10-31T14:53:02.961Z,5.72
2023-10-31T14:55:29.528Z,5.35
2023-10-31T14:57:56.061Z,4.28
2023-10-31T15:00:22.688Z,3.70
2023-10-31T15:02:49.437Z,3.45
2023-10-31T15:05:16.062Z,3.97
2023-10-31T15:07:42.641Z,3.50
2023-10-31T15:10:09.363Z,5.20
2023-10-31T15:12:35.979Z,4.50
2023-10-31T15:15:02.571Z,3.80
2023-10-31T15:17:29.296Z,4.97
2023-10-31T15:19:55.841Z,6.82
2023-10-31T15:22:22.560Z,5.80
2023-10-31T15:24:49.152Z,4.85
2023-10-31T15:27:18.961Z,4.22
2023-10-31T15:29:45.764Z,2.45
2023-10-31T15:32:12.549Z,3.30
2023-10-31T15:34:42.137Z,2.83
2023-10-31T15:37:08.621Z,3.65
2023-10-31T15:39:36.528Z,3.13
2023-10-31T15:42:03.197Z,2.67
2023-10-31T15:44:29.755Z,2.92
2023-10-31T15:46:56.317Z,3.40
2023-10-31T15:49:22.833Z,3.92
2023-10-31T15:51:50.219Z,5.43
2023-10-31T15:54:16.837Z,5.43
2023-10-31T15:56:43.487Z,8.35
2023-10-31T15:59:10.183Z,10.68
2023-10-31T16:01:36.798Z,6.95
2023-10-31T16:04:03.615Z,6.38
2023-10-31T16:06:30.148Z,9.55
2023-10-31T16:08:56.784Z,7.47
2023-10-31T16:11:23.461Z,8.45
2023-10-31T16:13:50.039Z,8.68
2023-10-31T16:16:16.791Z,9.57
2023-10-31T16:18:44.780Z,8.73
2023-10-31T16:21:17.795Z,6.45
2023-10-31T16:23:46.622Z,9.48
2023-10-31T16:26:14.177Z,8.50
2023-10-31T16:28:41.024Z,8.77
2023-10-31T16:31:07.767Z,11.45
2023-10-31T16:33:34.881Z,10.32
2023-10-31T16:36:01.492Z,10.02
2023-10-31T16:38:28.164Z,11.25
2023-10-31T16:40:54.745Z,13.82
2023-10-31T16:43:21.257Z,13.80
2023-10-31T16:45:48.580Z,14.65
2023-10-31T16:48:15.301Z,14.80
2023-10-31T16:50:41.978Z,14.10
2023-10-31T16:53:08.708Z,12.18
2023-10-31T16:55:35.274Z,18.27
2023-10-31T16:58:04.807Z,11.85
2023-10-31T17:00:31.376Z,13.43
2023-10-31T17:02:58.005Z,14.82
2023-10-31T17:05:25.143Z,18.02
2023-10-31T17:07:54.015Z,12.40
2023-10-31T17:10:21.558Z,12.98
2023-10-31T17:12:48.265Z,12.40
2023-10-31T17:15:14.819Z,10.18
2023-10-31T17:17:41.415Z,10.38
2023-10-31T17:20:08.418Z,10.15
2023-10-31T17:22:37.056Z,7.43
2023-10-31T17:25:03.862Z,6.82
2023-10-31T17:27:30.507Z,8.10
2023-10-31T17:29:57.109Z,9.52
2023-10-31T17:32:23.870Z,9.63
2023-10-31T17:34:50.508Z,9.13
2023-10-31T17:37:17.546Z,7.40
2023-10-31T17:39:44.090Z,11.55
2023-10-31T17:42:10.614Z,11.90
2023-10-31T17:44:37.331Z,10.82
2023-10-31T17:47:04.344Z,10.40
2023-10-31T17:49:31.350Z,11.48
2023-10-31T17:51:59.502Z,8.95
2023-10-31T17:54:26.012Z,10.52
2023-10-31T17:56:52.987Z,11.50
2023-10-31T17:59:19.670Z,14.20
2023-10-31T18:01:46.349Z,11.95
2023-10-31T18:04:12.942Z,10.45
2023-10-31T18:06:39.649Z,13.68
2023-10-31T18:09:07.623Z,13.35
2023-10-31T18:11:34.187Z,13.52
2023-10-31T18:14:01.118Z,12.95
2023-10-31T18:16:27.701Z,10.80
2023-10-31T18:18:54.493Z,12.73
2023-10-31T18:21:22.259Z,12.75
2023-10-31T18:23:49.895Z,12.77
2023-10-31T18:26:17.912Z,9.10
2023-10-31T18:28:44.556Z,6.60
2023-10-31T18:31:11.061Z,7.20
2023-10-31T18:33:37.668Z,6.22
2023-10-31T18:36:04.384Z,7.63
2023-10-31T18:38:31.009Z,6.47
2023-10-31T18:40:57.614Z,5.82
2023-10-31T18:43:24.180Z,4.72
2023-10-31T18:45:50.854Z,4.97
2023-10-31T18:48:17.526Z,5.10
2023-10-31T18:50:44.492Z,5.20
2023-10-31T18:53:13.208Z,3.72
2023-10-31T18:55:40.006Z,3.08
2023-10-31T18:58:06.923Z,3.15
2023-10-31T19:00:33.610Z,4.60
2023-10-31T19:03:02.919Z,4.20
2023-10-31T19:05:30.128Z,4.55
2023-10-31T19:07:57.057Z,3.75
2023-10-31T19:10:23.719Z,6.45
2023-10-31T19:12:50.258Z,3.33
2023-10-31T19:15:16.831Z,4.03
2023-10-31T19:17:45.330Z,3.38
2023-10-31T19:20:12.563Z,5.78
2023-10-31T19:22:39.602Z,6.15
2023-10-31T19:25:06.278Z,7.30
2023-10-31T19:27:32.977Z,6.63
2023-10-31T19:30:01.961Z,5.90
2023-10-31T19:32:28.865Z,5.28
2023-10-31T19:34:55.602Z,6.28
2023-10-31T19:37:22.266Z,3.85
2023-10-31T19:39:48.927Z,2.80
2023-10-31T19:42:18.627Z,5.40
2023-10-31T19:44:45.197Z,3.20
2023-10-31T19:47:13.404Z,3.78
2023-10-31T19:49:39.970Z,5.82
2023-10-31T19:52:06.599Z,3.20
2023-10-31T19:54:33.160Z,3.45
2023-10-31T19:56:59.684Z,3.13
2023-10-31T19:59:26.361Z,3.75
2023-10-31T20:01:53.156Z,4.25
2023-10-31T20:04:19.904Z,4.13
2023-10-31T20:06:46.620Z,4.45
2023-10-31T20:09:13.130Z,3.35
2023-10-31T20:11:39.764Z,3.95
2023-10-31T20:14:06.321Z,5.05
2023-10-31T20:16:32.916Z,5.05
2023-10-31T20:18:59.488Z,5.40
2023-10-31T20:21:26.508Z,4.43
2023-10-31T20:23:53.247Z,5.03
2023-10-31T20:26:20.765Z,5.82
2023-10-31T20:28:47.378Z,6.63
2023-10-31T20:31:14.067Z,8.07
2023-10-31T20:33:42.098Z,6.68
2023-10-31T20:36:08.847Z,7.03
2023-10-31T20:38:35.439Z,7.22
2023-10-31T20:41:02.307Z,7.50
2023-10-31T20:43:28.940Z,6.13
2023-10-31T20:45:55.743Z,6.15
2023-10-31T20:48:22.373Z,10.32
2023-10-31T20:50:49.282Z,8.95
2023-10-31T20:53:15.814Z,6.82
2023-10-31T20:55:44.056Z,7.43
2023-10-31T20:58:12.411Z,6.13
2023-10-31T21:00:40.209Z,8.15
2023-10-31T21:03:07.729Z,7.80
2023-10-31T21:05:34.679Z,6.63
2023-10-31T21:08:01.596Z,6.97
2023-10-31T21:10:28.257Z,8.52
2023-10-31T21:12:54.811Z,8.52
2023-10-31T21:15:21.842Z,10.10
2023-10-31T21:17:49.064Z,8.48
2023-10-31T21:20:16.127Z,9.38
2023-10-31T21:22:43.623Z,9.30
2023-10-31T21:25:10.536Z,8.38
2023-10-31T21:27:37.899Z,13.07
2023-10-31T21:30:04.909Z,13.45
2023-10-31T21:32:31.665Z,8.48
2023-10-31T21:34:58.754Z,10.63
2023-10-31T21:37:25.886Z,13.98
2023-10-31T21:39:52.831Z,12.05
2023-10-31T21:42:19.933Z,9.73
2023-10-31T21:44:46.617Z,9.20
2023-10-31T21:47:13.201Z,9.80
2023-10-31T21:49:39.791Z,12.07
2023-10-31T21:52:06.684Z,10.55
2023-10-31T21:54:34.054Z,10.93
2023-10-31T21:57:00.628Z,9.35
2023-10-31T21:59:28.313Z,8.75
2023-10-31T22:01:54.956Z,7.22
2023-10-31T22:04:21.766Z,9.40
2023-10-31T22:06:48.488Z,9.68
2023-10-31T22:09:15.226Z,7.75
2023-10-31T22:11:41.801Z,8.95
2023-10-31T22:14:08.797Z,10.43
2023-10-31T22:16:35.378Z,8.88
2023-10-31T22:19:02.036Z,11.00
2023-10-31T22:21:29.330Z,7.28
2023-10-31T22:23:55.918Z,11.50
2023-10-31T22:26:22.563Z,10.25
2023-10-31T22:28:49.511Z,8.55
2023-10-31T22:31:16.199Z,9.55
2023-10-31T22:33:43.375Z,6.70
2023-10-31T22:36:10.097Z,9.60
2023-10-31T22:38:36.883Z,8.07
2023-10-31T22:41:03.503Z,6.30
2023-10-31T22:43:31.015Z,7.22
2023-10-31T22:45:57.931Z,5.68
2023-10-31T22:48:24.539Z,7.10
2023-10-31T22:50:51.318Z,7.47
2023-10-31T22:53:17.955Z,9.00
2023-10-31T22:55:44.513Z,5.97
2023-10-31T22:58:11.021Z,5.97
2023-10-31T23:00:37.602Z,6.95
2023-10-31T23:03:04.331Z,5.45
2023-10-31T23:05:32.069Z,6.57
2023-10-31T23:07:59.418Z,6.97
2023-10-31T23:10:26.350Z,5.80
2023-10-31T23:12:52.935Z,6.28
2023-10-31T23:15:19.566Z,5.30
2023-10-31T23:17:46.770Z,8.07
2023-10-31T23:20:13.762Z,6.00
2023-10-31T23:22:41.892Z,7.43
2023-10-31T23:25:09.400Z,6.30
2023-10-31T23:27:36.058Z,6.40
2023-10-31T23:30:02.722Z,5.13
2023-10-31T23:32:29.358Z,5.55
2023-10-31T23:34:56.039Z,6.43
2023-10-31T23:37:23.316Z,4.55
2023-10-31T23:39:49.864Z,6.32
2023-10-31T23:42:16.413Z,5.05
2023-10-31T23:44:43.022Z,4.80
2023-10-31T23:47:09.612Z,6.93
2023-10-31T23:49:36.312Z,5.72
2023-10-31T23:52:02.851Z,5.80
2023-10-31T23:54:29.446Z,5.20
2023-10-31T23:56:55.973Z,8.90
2023-10-31T23:59:22.630Z,4.72
